Ioka, Utah
Current Conditions -  °F | °C
As of 11:53 AM on Thursday 23 Oct 2014 (Local Time) from KVEL Reporting Station
Clear Clear  
Wind Chill: 54°   Ceiling: Unl
Heat Index: 54°   Visibility: 10mi
Dew Point: 38°   Wind: 3mph
Humidity: 55%   Direction: NA
Pressure: 30.26"   Gusts: NA
Location:  40.5914°N, 110.379°W
Report Text: KVEL 231753Z AUTO VRB03KT 10SM CLR 12/03 A3026 RMK AO2 SLP222 T01220033 10122 20017 58002
Loading
Personal Weather Stations






























Interactive Weather Map
Tropical Storm Tracking
New forecast layout! Learn more

10-Day Weather Forecast

Advertisements
Track Severe Weather on mobile